createdAt,value
2023-03-17T00:01:03.623Z,97745.31
2023-03-17T00:06:07.286Z,97739.03
2023-03-17T00:11:17.896Z,97727.03
2023-03-17T00:16:27.417Z,97721.38
2023-03-17T00:21:32.958Z,97712.00
2023-03-17T00:26:35.354Z,97704.50
2023-03-17T00:31:39.343Z,97699.44
2023-03-17T00:36:42.841Z,97696.63
2023-03-17T00:46:47.926Z,97687.16
2023-03-17T00:51:51.737Z,97685.69
2023-03-17T00:56:54.576Z,97677.25
2023-03-17T01:01:57.575Z,97679.66
2023-03-17T01:07:00.705Z,97671.66
2023-03-17T01:12:03.318Z,97660.84
2023-03-17T01:17:15.174Z,97657.16
2023-03-17T01:22:17.530Z,97658.72
2023-03-17T01:27:20.146Z,97654.22
2023-03-17T01:32:22.784Z,97660.78
2023-03-17T01:37:27.354Z,97647.34
2023-03-17T01:42:30.298Z,97644.81
2023-03-17T01:47:32.713Z,97643.66
2023-03-17T01:52:39.810Z,97643.94
2023-03-17T01:57:50.832Z,97620.97
2023-03-17T02:02:57.690Z,97627.06
2023-03-17T02:08:00.541Z,97627.88
2023-03-17T02:13:05.850Z,97632.41
2023-03-17T02:18:09.786Z,97630.66
2023-03-17T02:23:15.748Z,97620.72
2023-03-17T02:28:26.178Z,97624.97
2023-03-17T02:33:28.957Z,97637.16
2023-03-17T02:38:31.874Z,97622.47
2023-03-17T02:43:37.400Z,97621.22
2023-03-17T02:48:40.947Z,97618.72
2023-03-17T02:53:43.364Z,97618.34
2023-03-17T02:58:46.525Z,97607.72
2023-03-17T03:03:49.009Z,97599.88
2023-03-17T03:08:52.441Z,97604.03
2023-03-17T03:13:55.237Z,97596.91
2023-03-17T03:18:57.962Z,97600.13
2023-03-17T03:24:00.591Z,97605.81
2023-03-17T03:29:04.025Z,97595.41
2023-03-17T03:34:06.460Z,97596.56
2023-03-17T03:39:09.782Z,97594.06
2023-03-17T03:44:12.171Z,97599.75
2023-03-17T03:49:14.636Z,97598.63
2023-03-17T03:54:17.106Z,97603.38
2023-03-17T03:59:19.710Z,97593.44
2023-03-17T04:04:23.067Z,97603.38
2023-03-17T04:09:26.012Z,97595.06
2023-03-17T04:14:28.782Z,97586.31
2023-03-17T04:19:31.513Z,97586.91
2023-03-17T04:24:37.305Z,97591.66
2023-03-17T04:29:43.937Z,97578.13
2023-03-17T04:34:46.364Z,97580.41
2023-03-17T04:39:48.826Z,97571.44
2023-03-17T04:44:53.796Z,97567.44
2023-03-17T04:49:56.916Z,97568.78
2023-03-17T04:54:59.534Z,97570.31
2023-03-17T05:00:01.966Z,97560.44
2023-03-17T05:05:05.157Z,97557.66
2023-03-17T05:10:08.427Z,97560.31
2023-03-17T05:15:11.343Z,97557.09
2023-03-17T05:20:14.527Z,97549.03
2023-03-17T05:25:16.998Z,97555.97
2023-03-17T05:30:19.577Z,97555.81
2023-03-17T05:35:22.612Z,97567.63
2023-03-17T05:40:25.438Z,97573.84
2023-03-17T05:45:29.420Z,97577.59
2023-03-17T05:50:32.618Z,97563.13
2023-03-17T05:55:35.357Z,97563.91
2023-03-17T06:00:38.179Z,97552.59
2023-03-17T06:05:40.857Z,97558.34
2023-03-17T06:10:43.620Z,97555.50
2023-03-17T06:15:48.543Z,97562.69
2023-03-17T06:20:51.083Z,97572.47
2023-03-17T06:25:53.520Z,97564.53
2023-03-17T06:30:56.316Z,97578.75
2023-03-17T06:36:00.144Z,97576.81
2023-03-17T06:41:03.525Z,97571.47
2023-03-17T06:46:08.452Z,97561.81
2023-03-17T06:51:11.076Z,97558.75
2023-03-17T06:56:28.832Z,97561.53
2023-03-17T07:01:32.390Z,97567.22
2023-03-17T07:06:35.138Z,97561.94
2023-03-17T07:11:37.936Z,97567.91
2023-03-17T07:16:40.558Z,97578.09
2023-03-17T07:21:43.098Z,97580.13
2023-03-17T07:26:46.375Z,97566.69
2023-03-17T07:31:49.560Z,97577.41
2023-03-17T07:36:52.385Z,97574.63
2023-03-17T07:41:58.095Z,97574.50
2023-03-17T07:47:01.102Z,97574.31
2023-03-17T07:52:03.771Z,97560.59
2023-03-17T07:57:06.593Z,97559.78
2023-03-17T08:02:16.563Z,97559.03
2023-03-17T08:07:19.516Z,97558.03
2023-03-17T08:12:22.125Z,97572.94
2023-03-17T08:17:28.004Z,97580.13
2023-03-17T08:22:30.658Z,97560.09
2023-03-17T08:27:33.959Z,97564.84
2023-03-17T08:32:37.108Z,97558.88
2023-03-17T08:37:39.657Z,97548.09
2023-03-17T08:42:42.905Z,97551.00
2023-03-17T08:47:46.819Z,97542.81
2023-03-17T08:52:51.507Z,97542.88
2023-03-17T08:57:54.277Z,97552.78
2023-03-17T09:02:58.450Z,97540.09
2023-03-17T09:08:01.330Z,97544.81
2023-03-17T09:13:04.094Z,97528.34
2023-03-17T09:18:06.953Z,97525.59
2023-03-17T09:23:11.803Z,97532.78
2023-03-17T09:28:14.308Z,97526.03
2023-03-17T09:33:18.088Z,97532.66
2023-03-17T09:38:21.657Z,97522.31
2023-03-17T09:43:38.237Z,97533.31
2023-03-17T09:48:51.843Z,97527.47
2023-03-17T09:54:07.971Z,97534.41
2023-03-17T09:59:38.718Z,97521.69
2023-03-17T10:04:43.008Z,97515.97
2023-03-17T10:09:58.386Z,97522.59
2023-03-17T10:15:13.339Z,97517.59
2023-03-17T10:20:30.349Z,97508.25
2023-03-17T10:25:37.545Z,97495.47
2023-03-17T10:30:40.247Z,97493.44
2023-03-17T10:35:45.038Z,97491.94
2023-03-17T10:41:10.048Z,97486.66
2023-03-17T10:46:25.251Z,97481.31
2023-03-17T10:51:33.624Z,97483.06
2023-03-17T10:56:37.977Z,97486.34
2023-03-17T11:01:46.542Z,97484.69
2023-03-17T11:06:52.577Z,97479.09
2023-03-17T11:12:36.702Z,97468.44
2023-03-17T11:17:40.319Z,97462.59
2023-03-17T11:22:50.238Z,97454.09
2023-03-17T11:28:16.202Z,97451.25
2023-03-17T11:33:28.226Z,97443.97
2023-03-17T11:38:37.198Z,97450.50
2023-03-17T11:44:18.584Z,97429.41
2023-03-17T11:49:40.196Z,97433.63
2023-03-17T11:55:15.021Z,97428.97
2023-03-17T12:00:27.794Z,97423.00
2023-03-17T12:05:30.727Z,97411.06
2023-03-17T12:10:51.838Z,97418.53
2023-03-17T12:16:26.264Z,97416.09
2023-03-17T12:21:42.119Z,97399.19
2023-03-17T12:26:57.789Z,97400.38
2023-03-17T12:32:12.450Z,97392.09
2023-03-17T12:37:17.350Z,97394.53
2023-03-17T12:42:31.307Z,97390.03
2023-03-17T12:48:11.224Z,97386.72
2023-03-17T12:53:14.359Z,97375.44
2023-03-17T12:58:32.384Z,97382.72
2023-03-17T13:03:38.563Z,97377.16
2023-03-17T13:08:42.279Z,97363.59
2023-03-17T13:13:46.712Z,97350.31
2023-03-17T13:18:50.457Z,97342.53
2023-03-17T13:23:58.096Z,97339.06
2023-03-17T13:29:22.641Z,97333.97
2023-03-17T13:34:28.330Z,97332.47
2023-03-17T13:40:01.800Z,97328.53
2023-03-17T13:45:19.977Z,97310.31
2023-03-17T13:50:32.767Z,97320.25
2023-03-17T13:55:39.101Z,97317.09
2023-03-17T14:00:49.101Z,97316.31
2023-03-17T14:05:53.129Z,97301.53
2023-03-17T14:11:01.650Z,97299.97
2023-03-17T14:16:14.457Z,97298.22
2023-03-17T14:21:23.699Z,97297.31
2023-03-17T14:26:29.812Z,97286.88
2023-03-17T14:31:32.518Z,97281.59
2023-03-17T14:36:35.169Z,97287.44
2023-03-17T14:41:37.583Z,97276.13
2023-03-17T14:46:41.273Z,97281.94
2023-03-17T14:51:44.260Z,97271.63
2023-03-17T14:56:57.974Z,97272.75
2023-03-17T15:02:03.697Z,97266.06
2023-03-17T15:07:07.760Z,97258.84
2023-03-17T15:12:16.723Z,97264.03
2023-03-17T15:17:28.244Z,97258.13
2023-03-17T15:22:43.379Z,97259.03
2023-03-17T15:27:46.999Z,97260.13
2023-03-17T15:33:17.635Z,97257.94
2023-03-17T15:38:21.598Z,97255.75
2023-03-17T15:43:26.472Z,97259.78
2023-03-17T15:48:31.608Z,97259.53
2023-03-17T15:53:34.163Z,97260.59
2023-03-17T15:58:36.992Z,97255.59
2023-03-17T16:03:42.093Z,97254.84
2023-03-17T16:08:45.369Z,97247.31
2023-03-17T16:13:48.327Z,97246.59
2023-03-17T16:18:51.811Z,97243.56
2023-03-17T16:23:55.117Z,97240.53
2023-03-17T16:28:57.804Z,97245.81
2023-03-17T16:34:01.084Z,97241.50
2023-03-17T16:39:05.858Z,97248.44
2023-03-17T16:44:12.267Z,97250.38
2023-03-17T16:49:20.550Z,97246.31
2023-03-17T16:54:23.052Z,97254.50
2023-03-17T16:59:31.267Z,97270.91
2023-03-17T17:04:38.427Z,97269.56
2023-03-17T17:09:41.050Z,97269.25
2023-03-17T17:14:43.472Z,97269.94
2023-03-17T17:19:46.184Z,97278.56
2023-03-17T17:24:48.921Z,97307.81
2023-03-17T17:29:51.531Z,97299.63
2023-03-17T17:34:54.128Z,97305.72
2023-03-17T17:39:56.783Z,97313.56
2023-03-17T17:44:59.505Z,97320.50
2023-03-17T17:50:02.693Z,97322.41
2023-03-17T17:55:05.604Z,97327.38
2023-03-17T18:00:12.741Z,97339.22
2023-03-17T18:05:15.335Z,97331.53
2023-03-17T18:10:24.961Z,97333.19
2023-03-17T18:15:28.014Z,97344.84
2023-03-17T18:20:31.545Z,97351.44
2023-03-17T18:25:34.220Z,97357.22
2023-03-17T18:30:36.815Z,97369.38
2023-03-17T18:35:39.935Z,97358.03
2023-03-17T18:40:43.230Z,97365.06
2023-03-17T18:45:45.818Z,97367.16
2023-03-17T18:50:48.867Z,97371.22
2023-03-17T18:55:51.354Z,97384.94
2023-03-17T19:00:59.993Z,97386.44
2023-03-17T19:06:11.754Z,97388.34
2023-03-17T19:11:16.544Z,97385.47
2023-03-17T19:16:19.592Z,97391.69
2023-03-17T19:21:22.986Z,97391.03
2023-03-17T19:26:25.570Z,97387.00
2023-03-17T19:31:28.275Z,97381.50
2023-03-17T19:36:37.148Z,97390.94
2023-03-17T19:41:39.628Z,97396.84
2023-03-17T19:46:42.083Z,97396.19
2023-03-17T19:51:44.883Z,97397.81
2023-03-17T19:56:47.382Z,97402.34
2023-03-17T20:01:50.433Z,97398.00
2023-03-17T20:06:57.533Z,97402.00
2023-03-17T20:12:01.992Z,97401.78
2023-03-17T20:17:04.589Z,97404.78
2023-03-17T20:22:07.718Z,97415.41
2023-03-17T20:27:14.225Z,97414.81
2023-03-17T20:32:17.435Z,97424.66
2023-03-17T20:37:19.966Z,97424.47
2023-03-17T20:42:22.817Z,97430.16
2023-03-17T20:47:25.817Z,97431.09
2023-03-17T20:52:30.213Z,97427.41
2023-03-17T20:57:33.909Z,97435.03
2023-03-17T21:02:36.748Z,97438.06
2023-03-17T21:07:39.395Z,97435.34
2023-03-17T21:12:42.260Z,97430.50
2023-03-17T21:17:44.697Z,97426.53
2023-03-17T21:22:47.993Z,97433.72
2023-03-17T21:27:50.956Z,97436.34
2023-03-17T21:32:54.929Z,97432.19
2023-03-17T21:37:58.476Z,97434.69
2023-03-17T21:43:01.766Z,97441.41
2023-03-17T21:48:04.404Z,97444.09
2023-03-17T21:53:07.461Z,97442.34
2023-03-17T21:58:09.966Z,97446.00
2023-03-17T22:03:12.593Z,97455.34
2023-03-17T22:08:15.364Z,97466.69
2023-03-17T22:13:18.128Z,97464.69
2023-03-17T22:18:20.557Z,97464.88
2023-03-17T22:23:23.821Z,97473.09
2023-03-17T22:28:26.491Z,97477.06
2023-03-17T22:33:29.273Z,97480.41
2023-03-17T22:38:32.006Z,97491.00
2023-03-17T22:43:35.607Z,97494.63
2023-03-17T22:48:38.191Z,97499.53
2023-03-17T22:53:41.259Z,97501.97
2023-03-17T22:58:45.093Z,97501.09
2023-03-17T23:03:47.642Z,97504.00
2023-03-17T23:08:50.636Z,97497.19
2023-03-17T23:13:54.227Z,97516.19
2023-03-17T23:18:56.940Z,97509.53
2023-03-17T23:24:00.667Z,97521.84
2023-03-17T23:29:05.134Z,97526.44
2023-03-17T23:34:08.484Z,97527.66
2023-03-17T23:39:10.889Z,97536.78
2023-03-17T23:44:14.421Z,97531.47
2023-03-17T23:49:17.192Z,97531.63
2023-03-17T23:54:19.639Z,97534.06
2023-03-17T23:59:22.157Z,97534.06
